Time;durP1;ratioP1;P1;durP2;ratioP2;P2;SDS_P1;SDS_P2;PMS_P1;PMS_P2;Temp;Humidity;BMP_temperature;BMP_pressure;BME280_temperature;BME280_humidity;BME280_pressure;Samples;Min_cycle;Max_cycle;Signal;HPM_P1;HPM_P2
2022/08/10 00:01:51;;;;;;;1.67;1.17;;;26.60;61.90;;;;;;5020861;28;20789;-79
2022/08/10 00:04:21;;;;;;;3.00;1.40;;;26.60;62.00;;;;;;5028550;28;20202;-79
2022/08/10 00:06:52;;;;;;;2.15;1.50;;;26.60;62.10;;;;;;5024418;28;20211;-78
2022/08/10 00:09:20;;;;;;;2.38;1.40;;;26.50;62.10;;;;;;5023045;28;20196;-78
2022/08/10 00:11:50;;;;;;;2.72;1.50;;;26.60;62.20;;;;;;5028746;28;20240;-78
2022/08/10 00:14:19;;;;;;;3.28;1.02;;;26.50;62.40;;;;;;5026025;28;20202;-78
2022/08/10 00:16:48;;;;;;;3.33;1.30;;;26.50;62.40;;;;;;5024668;28;20203;-77
2022/08/10 00:19:16;;;;;;;1.67;1.27;;;26.50;62.50;;;;;;5025855;28;20398;-77
2022/08/10 00:21:45;;;;;;;2.95;1.50;;;26.50;62.50;;;;;;5026716;28;20220;-79
2022/08/10 00:24:15;;;;;;;3.13;1.50;;;26.50;62.50;;;;;;5027545;28;20200;-78
2022/08/10 00:26:43;;;;;;;2.83;1.67;;;26.50;62.40;;;;;;5023515;28;20192;-78
2022/08/10 00:29:33;;;;;;;2.08;1.45;;;26.50;62.40;;;;;;5023884;28;20200;-77
2022/08/10 00:32:02;;;;;;;3.42;1.50;;;26.50;62.50;;;;;;5021625;28;20254;-78
2022/08/10 00:34:32;;;;;;;2.70;1.55;;;26.50;62.60;;;;;;5023453;28;20195;-77
2022/08/10 00:37:01;;;;;;;3.53;1.60;;;26.50;62.60;;;;;;5018936;28;20204;-78
2022/08/10 00:39:30;;;;;;;2.28;1.40;;;26.50;62.70;;;;;;5022781;28;20227;-78
2022/08/10 00:42:05;;;;;;;4.38;1.60;;;26.50;62.70;;;;;;5027644;28;20239;-78
2022/08/10 00:44:38;;;;;;;2.55;1.60;;;26.40;62.60;;;;;;5019693;28;20227;-78
2022/08/10 00:47:08;;;;;;;5.45;1.50;;;26.40;62.60;;;;;;5025082;28;20196;-77
2022/08/10 00:49:56;;;;;;;4.95;1.40;;;26.40;62.60;;;;;;5020355;28;20207;-77
2022/08/10 00:52:27;;;;;;;3.85;1.83;;;26.40;62.90;;;;;;5022470;28;20277;-78
2022/08/10 00:54:56;;;;;;;5.88;2.22;;;26.40;62.90;;;;;;5027114;28;20214;-78
2022/08/10 00:57:25;;;;;;;2.85;1.60;;;26.40;63.00;;;;;;5027957;28;20673;-78
2022/08/10 00:59:55;;;;;;;3.80;1.75;;;26.40;63.20;;;;;;5018329;28;20200;-76
2022/08/10 01:02:27;;;;;;;2.50;1.60;;;26.30;64.10;;;;;;5019654;28;20204;-77
2022/08/10 01:04:56;;;;;;;5.43;1.60;;;26.30;63.60;;;;;;5020063;28;20282;-78
2022/08/10 01:07:42;;;;;;;5.90;1.63;;;26.30;63.60;;;;;;5017693;28;20275;-78
2022/08/10 01:10:20;;;;;;;3.40;1.70;;;26.20;63.60;;;;;;5019703;28;21010;-78
2022/08/10 01:12:55;;;;;;;3.13;1.85;;;26.20;63.60;;;;;;5021374;28;20203;-77
2022/08/10 01:15:28;;;;;;;4.45;1.30;;;26.20;63.60;;;;;;5019726;28;20235;-78
2022/08/10 01:18:02;;;;;;;3.08;1.40;;;26.20;63.60;;;;;;5018555;28;20196;-77
2022/08/10 01:20:38;;;;;;;3.58;1.45;;;26.20;63.60;;;;;;5016817;28;20188;-77
2022/08/10 01:23:38;;;;;;;2.13;1.30;;;26.20;63.60;;;;;;5021379;28;20195;-78
2022/08/10 01:26:27;;;;;;;2.35;1.38;;;26.20;63.70;;;;;;5017692;28;20829;-78
2022/08/10 01:29:14;;;;;;;2.75;1.33;;;26.20;63.80;;;;;;5024451;28;20196;-80
2022/08/10 01:31:50;;;;;;;2.72;1.48;;;26.10;63.90;;;;;;5015027;28;20206;-78
2022/08/10 01:34:22;;;;;;;2.80;1.38;;;26.10;64.00;;;;;;5022975;28;20278;-77
2022/08/10 01:36:54;;;;;;;2.05;1.30;;;26.10;64.20;;;;;;5019604;28;20207;-77
2022/08/10 01:39:25;;;;;;;1.75;1.23;;;26.10;64.50;;;;;;5020598;28;20783;-78
2022/08/10 01:41:56;;;;;;;3.78;1.60;;;26.10;65.00;;;;;;5021166;28;21269;-78
2022/08/10 01:44:29;;;;;;;3.35;1.20;;;26.00;65.30;;;;;;5023730;28;20580;-77
2022/08/10 01:49:53;;;;;;;1.75;1.20;;;26.00;65.30;;;;;;5019629;28;20230;-78
2022/08/10 01:52:26;;;;;;;2.38;1.33;;;26.00;65.40;;;;;;5023276;28;20195;-77
2022/08/10 01:54:56;;;;;;;2.35;1.20;;;25.90;65.30;;;;;;5021833;28;20195;-78
2022/08/10 01:57:27;;;;;;;5.22;1.40;;;26.00;65.60;;;;;;5027569;28;20202;-78
2022/08/10 01:59:58;;;;;;;1.80;1.15;;;25.90;66.00;;;;;;5022353;28;20192;-77
2022/08/10 02:02:33;;;;;;;4.70;1.83;;;25.90;65.80;;;;;;5022430;28;20783;-77
2022/08/10 02:05:05;;;;;;;2.50;1.23;;;25.90;66.00;;;;;;5018711;28;20195;-79
2022/08/10 02:07:35;;;;;;;2.05;0.90;;;25.90;66.60;;;;;;5022400;28;20546;-77
2022/08/10 02:10:11;;;;;;;2.15;1.08;;;25.90;66.80;;;;;;5020543;28;20211;-78
2022/08/10 02:12:42;;;;;;;1.73;1.10;;;25.80;67.40;;;;;;5020601;28;20212;-77
2022/08/10 02:15:15;;;;;;;1.30;1.00;;;25.80;67.60;;;;;;5024252;28;20222;-78
2022/08/10 02:17:48;;;;;;;2.05;1.00;;;25.80;67.80;;;;;;5023755;28;20184;-78
2022/08/10 02:20:32;;;;;;;1.92;0.90;;;25.80;67.80;;;;;;5021830;28;20203;-77
2022/08/10 02:23:04;;;;;;;1.85;1.10;;;25.80;67.70;;;;;;5020383;28;20211;-78
2022/08/10 02:25:34;;;;;;;1.40;0.90;;;25.80;67.70;;;;;;5019530;28;20202;-80
2022/08/10 02:28:14;;;;;;;1.83;0.80;;;25.80;68.30;;;;;;5026362;28;20200;-77
2022/08/10 02:31:02;;;;;;;2.42;1.00;;;25.80;68.30;;;;;;5020293;28;20220;-77
2022/08/10 02:33:37;;;;;;;2.05;1.00;;;25.70;68.50;;;;;;5022104;28;20198;-77
2022/08/10 02:36:26;;;;;;;3.28;1.00;;;25.70;69.10;;;;;;5011939;28;20258;-77
2022/08/10 02:38:57;;;;;;;1.65;1.10;;;25.70;69.10;;;;;;5023363;28;20232;-76
2022/08/10 02:41:32;;;;;;;1.63;1.00;;;25.60;69.10;;;;;;5021861;28;20200;-78
2022/08/10 02:44:26;;;;;;;1.75;1.00;;;25.60;69.10;;;;;;5025114;28;20210;-78
2022/08/10 02:47:21;;;;;;;1.75;1.08;;;25.60;68.90;;;;;;5019878;28;20242;-78
2022/08/10 02:49:59;;;;;;;1.58;0.95;;;25.60;68.90;;;;;;5023212;28;20198;-78
2022/08/10 02:52:35;;;;;;;3.55;1.20;;;25.60;68.90;;;;;;5019626;28;20219;-79
2022/08/10 02:55:09;;;;;;;2.35;1.30;;;25.60;68.90;;;;;;5024868;28;20201;-77
2022/08/10 02:57:51;;;;;;;2.13;1.08;;;25.60;68.80;;;;;;5017398;28;20195;-78
2022/08/10 03:00:44;;;;;;;2.83;1.30;;;25.70;68.80;;;;;;5023532;28;20206;-78
2022/08/10 03:03:19;;;;;;;2.45;1.33;;;25.60;68.60;;;;;;5022919;28;20298;-78
2022/08/10 03:05:53;;;;;;;1.67;1.10;;;25.60;69.50;;;;;;5020066;28;20989;-78
2022/08/10 03:08:25;;;;;;;2.20;1.40;;;25.60;68.60;;;;;;5027020;28;20206;-78
2022/08/10 03:10:56;;;;;;;1.73;1.08;;;25.60;68.50;;;;;;5027225;28;20242;-77
2022/08/10 03:13:26;;;;;;;2.00;1.35;;;25.60;68.60;;;;;;5027552;28;20194;-77
2022/08/10 03:15:56;;;;;;;1.98;1.23;;;25.60;69.00;;;;;;5027263;28;20633;-78
2022/08/10 03:18:25;;;;;;;2.38;1.02;;;25.60;68.90;;;;;;5022589;28;20196;-77
2022/08/10 03:20:55;;;;;;;1.90;1.20;;;25.60;68.90;;;;;;5023070;28;20208;-79
2022/08/10 03:23:26;;;;;;;2.22;1.10;;;25.60;69.00;;;;;;5016458;28;20220;-78
2022/08/10 03:25:57;;;;;;;1.75;1.20;;;25.60;68.90;;;;;;5017309;28;20271;-77
2022/08/10 03:28:27;;;;;;;2.15;1.23;;;25.60;68.80;;;;;;5029558;28;20187;-76
2022/08/10 03:30:57;;;;;;;3.55;1.10;;;25.60;68.60;;;;;;5024666;28;20203;-79
2022/08/10 03:33:28;;;;;;;2.30;1.27;;;25.60;68.60;;;;;;5030409;28;20195;-78
2022/08/10 03:35:59;;;;;;;2.92;1.23;;;25.60;68.50;;;;;;5019745;28;20192;-75
2022/08/10 03:38:50;;;;;;;2.28;1.27;;;25.60;68.50;;;;;;5020109;28;20650;-77
2022/08/10 03:41:23;;;;;;;3.95;1.48;;;25.70;68.50;;;;;;5040392;28;20250;-78
2022/08/10 03:43:53;;;;;;;2.20;1.25;;;25.70;68.60;;;;;;5047500;28;21009;-78
2022/08/10 03:46:25;;;;;;;3.10;1.70;;;25.60;68.50;;;;;;5040290;28;20195;-78
2022/08/10 03:48:57;;;;;;;3.15;1.30;;;25.70;68.60;;;;;;5045461;28;20198;-78
2022/08/10 03:51:31;;;;;;;2.58;1.70;;;25.60;68.50;;;;;;5038312;28;20217;-78
2022/08/10 03:54:00;;;;;;;3.67;1.27;;;25.70;68.50;;;;;;5044342;28;20184;-77
2022/08/10 03:56:36;;;;;;;5.28;1.48;;;25.70;68.50;;;;;;5041735;28;20699;-79
2022/08/10 03:59:08;;;;;;;3.97;1.20;;;25.60;68.40;;;;;;5048788;28;20194;-77
2022/08/10 04:01:37;;;;;;;2.83;1.50;;;25.70;68.40;;;;;;5047676;28;20191;-79
2022/08/10 04:04:26;;;;;;;3.28;1.40;;;25.70;68.40;;;;;;5045147;28;20649;-78
2022/08/10 04:06:58;;;;;;;2.35;1.38;;;25.70;68.40;;;;;;5044902;28;20755;-79
2022/08/10 04:09:28;;;;;;;3.08;1.40;;;25.70;68.40;;;;;;5044859;28;20206;-78
2022/08/10 04:12:17;;;;;;;11.68;2.22;;;25.70;68.40;;;;;;5040785;28;20213;-76
2022/08/10 04:14:45;;;;;;;5.07;1.60;;;25.70;68.40;;;;;;5039394;28;20898;-78
2022/08/10 04:17:17;;;;;;;2.28;1.52;;;25.70;68.40;;;;;;5044186;28;20197;-77
2022/08/10 04:20:07;;;;;;;4.03;1.45;;;25.60;68.30;;;;;;5043699;28;20199;-78
2022/08/10 04:22:39;;;;;;;1.95;1.20;;;25.60;68.30;;;;;;5036142;28;20214;-77
2022/08/10 04:25:10;;;;;;;6.22;1.27;;;25.60;68.40;;;;;;5038790;28;20192;-78
2022/08/10 04:27:39;;;;;;;2.95;1.42;;;25.60;68.50;;;;;;5039286;28;20195;-77
2022/08/10 04:30:08;;;;;;;4.80;1.27;;;25.60;68.90;;;;;;5041251;28;20210;-79
2022/08/10 04:32:38;;;;;;;3.30;1.70;;;25.60;68.90;;;;;;5042463;28;20203;-78
2022/08/10 04:35:10;;;;;;;3.60;1.42;;;25.60;68.90;;;;;;5044696;28;20195;-77
2022/08/10 04:37:41;;;;;;;3.15;1.42;;;25.60;69.20;;;;;;5042536;28;20191;-77
2022/08/10 04:40:16;;;;;;;5.60;1.77;;;25.50;69.40;;;;;;5043736;28;20241;-78
2022/08/10 04:43:02;;;;;;;3.58;1.45;;;25.50;69.70;;;;;;5041711;28;20217;-77
2022/08/10 04:45:40;;;;;;;10.32;1.90;;;25.50;69.70;;;;;;5044580;28;20187;-77
2022/08/10 04:48:21;;;;;;;4.43;1.95;;;25.40;69.60;;;;;;5049139;28;20885;-77
2022/08/10 04:51:09;;;;;;;2.88;1.55;;;25.50;69.60;;;;;;5049843;28;20579;-78
2022/08/10 04:53:48;;;;;;;1.52;1.10;;;25.50;69.60;;;;;;5049511;28;20183;-78
2022/08/10 04:56:36;;;;;;;4.43;1.33;;;25.50;69.60;;;;;;5041575;28;20191;-78
2022/08/10 04:59:06;;;;;;;2.88;1.60;;;25.50;69.40;;;;;;5046997;28;21031;-78
2022/08/10 05:01:35;;;;;;;2.70;1.33;;;25.50;69.60;;;;;;5041975;28;20195;-79
2022/08/10 05:04:23;;;;;;;4.75;1.10;;;25.50;69.40;;;;;;5039476;28;20880;-78
2022/08/10 05:07:10;;;;;;;8.20;1.55;;;25.50;69.30;;;;;;5043356;28;20553;-78
2022/08/10 05:09:46;;;;;;;6.05;1.48;;;25.60;69.20;;;;;;5042058;28;20208;-78
2022/08/10 05:12:34;;;;;;;4.25;1.30;;;25.60;69.20;;;;;;5038955;28;20738;-78
2022/08/10 05:15:09;;;;;;;3.00;1.70;;;25.60;69.10;;;;;;5039665;28;20208;-77
2022/08/10 05:17:38;;;;;;;4.82;1.25;;;25.70;69.20;;;;;;5049878;28;20191;-78
2022/08/10 05:20:12;;;;;;;3.50;1.33;;;25.70;69.00;;;;;;5042024;28;20187;-77
2022/08/10 05:22:43;;;;;;;6.07;1.23;;;25.70;69.00;;;;;;5044340;28;20738;-78
2022/08/10 05:25:15;;;;;;;2.70;1.52;;;25.80;69.10;;;;;;4997190;28;20751;-78
2022/08/10 05:27:44;;;;;;;2.83;1.70;;;25.80;69.10;;;;;;5043620;28;20195;-77
2022/08/10 05:30:20;;;;;;;3.03;1.27;;;25.80;68.80;;;;;;5041553;28;20199;-77
2022/08/10 05:32:50;;;;;;;3.70;1.30;;;25.90;68.80;;;;;;5044093;28;20248;-78
2022/08/10 05:35:27;;;;;;;3.80;1.35;;;25.90;68.60;;;;;;5047225;28;20245;-77
2022/08/10 05:38:16;;;;;;;4.50;1.30;;;25.90;68.50;;;;;;5045280;28;21062;-79
2022/08/10 05:40:47;;;;;;;2.08;1.20;;;26.00;68.40;;;;;;5048505;28;20218;-78
2022/08/10 05:43:18;;;;;;;4.03;1.33;;;26.00;68.30;;;;;;5041090;28;20220;-76
2022/08/10 05:45:48;;;;;;;3.42;1.90;;;26.00;68.10;;;;;;5049128;28;20737;-79
2022/08/10 05:48:37;;;;;;;4.45;2.33;;;26.10;68.30;;;;;;5041520;28;20198;-80
2022/08/10 05:51:26;;;;;;;3.00;1.50;;;26.00;68.20;;;;;;5047354;28;20320;-78
2022/08/10 05:53:55;;;;;;;7.95;1.95;;;26.10;68.20;;;;;;5042129;28;20279;-77
2022/08/10 05:56:36;;;;;;;1.88;1.20;;;26.10;68.20;;;;;;5042750;28;20271;-77
2022/08/10 05:59:27;;;;;;;2.70;1.50;;;26.10;68.00;;;;;;5043838;28;20195;-77
2022/08/10 06:02:24;;;;;;;2.97;1.45;;;26.10;67.90;;;;;;5041959;28;20600;-77
2022/08/10 06:05:08;;;;;;;5.60;1.58;;;26.10;67.90;;;;;;5039192;28;20246;-80
2022/08/10 06:07:40;;;;;;;6.25;1.40;;;26.20;67.80;;;;;;5039638;28;20182;-76
2022/08/10 06:10:13;;;;;;;5.10;1.48;;;26.20;67.70;;;;;;5049466;28;20191;-80
2022/08/10 06:16:00;;;;;;;1.90;1.45;;;26.40;67.30;;;;;;5044738;28;20191;-76
2022/08/10 06:18:29;;;;;;;6.88;1.60;;;26.40;67.00;;;;;;5041291;28;20202;-77
2022/08/10 06:20:59;;;;;;;4.50;1.40;;;26.50;66.90;;;;;;5038374;28;20210;-77
2022/08/10 06:23:29;;;;;;;3.00;1.40;;;26.60;66.80;;;;;;5041553;28;20215;-76
2022/08/10 06:25:58;;;;;;;2.35;1.42;;;26.60;66.50;;;;;;5048018;28;20206;-76
2022/08/10 06:28:46;;;;;;;8.93;1.85;;;26.70;66.30;;;;;;5044600;28;20187;-76
2022/08/10 06:31:32;;;;;;;5.60;2.10;;;26.70;66.10;;;;;;5047457;28;20667;-77
2022/08/10 06:34:20;;;;;;;5.45;1.92;;;26.90;66.10;;;;;;5044149;28;20193;-76
2022/08/10 06:36:49;;;;;;;3.42;1.75;;;27.00;66.00;;;;;;5045624;28;20278;-76
2022/08/10 06:39:17;;;;;;;5.82;1.90;;;27.00;65.80;;;;;;5044163;28;20238;-77
2022/08/10 06:42:09;;;;;;;4.57;1.90;;;27.10;65.80;;;;;;5044141;28;20902;-77
2022/08/10 06:44:52;;;;;;;5.85;2.25;;;27.20;65.50;;;;;;5044178;28;20297;-77
2022/08/10 06:47:25;;;;;;;4.50;1.95;;;27.20;65.20;;;;;;5049206;28;20205;-76
2022/08/10 06:49:58;;;;;;;10.52;2.80;;;27.30;65.10;;;;;;5040208;28;20200;-77
2022/08/10 06:52:32;;;;;;;6.70;2.30;;;27.30;64.90;;;;;;5046644;28;20201;-80
2022/08/10 06:55:02;;;;;;;11.90;2.85;;;27.40;64.70;;;;;;5043760;28;20195;-76
2022/08/10 06:57:37;;;;;;;9.73;2.72;;;27.40;64.20;;;;;;5047615;28;20190;-77
2022/08/10 07:00:09;;;;;;;10.45;2.83;;;27.50;64.20;;;;;;5041637;28;20696;-76
2022/08/10 07:02:46;;;;;;;12.23;3.90;;;27.50;64.20;;;;;;5044439;28;20641;-77
2022/08/10 07:05:19;;;;;;;13.13;3.20;;;27.50;64.30;;;;;;5041837;28;20210;-76
2022/08/10 07:07:51;;;;;;;14.10;2.88;;;27.50;64.40;;;;;;5045827;28;20731;-76
2022/08/10 07:10:23;;;;;;;10.45;3.20;;;27.60;64.40;;;;;;5050958;28;20187;-77
2022/08/10 07:13:10;;;;;;;18.55;2.90;;;27.60;64.40;;;;;;5044578;28;20191;-76
2022/08/10 07:15:40;;;;;;;11.05;3.00;;;27.70;64.40;;;;;;5046740;28;20660;-77
2022/08/10 07:18:30;;;;;;;5.90;3.10;;;27.70;64.30;;;;;;5044666;28;20280;-75
2022/08/10 07:21:00;;;;;;;10.15;2.60;;;27.70;64.00;;;;;;5042462;28;20649;-76
2022/08/10 07:23:31;;;;;;;5.88;2.25;;;27.80;63.90;;;;;;5044185;28;20290;-76
2022/08/10 07:26:21;;;;;;;10.13;2.60;;;27.80;63.40;;;;;;5041518;28;20191;-76
2022/08/10 07:28:50;;;;;;;4.28;1.95;;;27.80;63.20;;;;;;5044270;28;20205;-78
2022/08/10 07:31:22;;;;;;;4.97;1.52;;;27.80;63.90;;;;;;5040618;28;20633;-77
2022/08/10 07:34:14;;;;;;;4.78;1.25;;;27.90;63.10;;;;;;5048130;28;20260;-77
2022/08/10 07:37:00;;;;;;;2.75;1.45;;;27.90;62.80;;;;;;5047322;28;20207;-77
2022/08/10 07:39:31;;;;;;;3.38;1.83;;;28.00;62.80;;;;;;5044654;28;20847;-76
2022/08/10 07:42:21;;;;;;;2.78;1.60;;;28.00;62.80;;;;;;5042295;28;20199;-77
2022/08/10 07:44:50;;;;;;;2.40;1.30;;;28.10;62.40;;;;;;5044924;28;20596;-78
2022/08/10 07:47:27;;;;;;;2.70;1.58;;;28.20;62.30;;;;;;5051789;28;20183;-76
2022/08/10 07:50:20;;;;;;;2.42;1.50;;;28.20;62.10;;;;;;5044589;28;20829;-76
2022/08/10 07:52:51;;;;;;;3.03;1.73;;;28.20;61.80;;;;;;5047560;28;20190;-78
2022/08/10 07:55:21;;;;;;;2.50;1.00;;;28.20;61.60;;;;;;5032939;28;20210;-77
2022/08/10 07:58:11;;;;;;;3.95;1.33;;;28.30;61.30;;;;;;5042416;28;20218;-76
2022/08/10 08:00:40;;;;;;;2.60;1.33;;;28.30;61.40;;;;;;5044100;28;20221;-77
2022/08/10 08:03:13;;;;;;;3.13;1.48;;;28.40;61.30;;;;;;5041922;28;20195;-78
2022/08/10 08:05:43;;;;;;;13.20;1.70;;;28.40;61.20;;;;;;5047880;28;20843;-77
2022/08/10 08:08:33;;;;;;;2.15;1.20;;;28.40;60.70;;;;;;5051588;28;20238;-76
2022/08/10 08:11:03;;;;;;;4.90;1.60;;;28.50;60.80;;;;;;5048224;28;20241;-79
2022/08/10 08:13:32;;;;;;;5.90;1.20;;;28.50;60.90;;;;;;5055159;28;20216;-77
2022/08/10 08:16:03;;;;;;;3.40;1.35;;;28.60;60.80;;;;;;5046296;28;20199;-76
2022/08/10 08:18:51;;;;;;;2.78;1.70;;;28.60;60.50;;;;;;5044094;28;20191;-77
2022/08/10 08:21:40;;;;;;;11.52;1.65;;;28.60;60.40;;;;;;5045483;28;20213;-77
2022/08/10 08:24:29;;;;;;;2.50;1.50;;;28.60;60.50;;;;;;5046439;28;20191;-77
2022/08/10 08:27:02;;;;;;;2.10;1.38;;;28.70;60.70;;;;;;5041317;28;20293;-77
2022/08/10 08:29:33;;;;;;;3.42;1.40;;;28.80;60.70;;;;;;5046665;28;20183;-77
2022/08/10 08:32:03;;;;;;;2.47;1.40;;;28.80;60.60;;;;;;5047124;28;20229;-78
2022/08/10 08:34:36;;;;;;;4.15;1.60;;;28.80;60.50;;;;;;5043472;28;20191;-77
2022/08/10 08:37:07;;;;;;;4.47;1.70;;;28.90;60.60;;;;;;5046758;28;20214;-78
2022/08/10 08:39:36;;;;;;;4.97;2.05;;;28.90;60.80;;;;;;5044139;28;20237;-76
2022/08/10 08:42:18;;;;;;;2.65;1.70;;;29.00;60.30;;;;;;5043657;28;20199;-77
2022/08/10 08:45:15;;;;;;;3.97;1.35;;;29.00;60.00;;;;;;5042502;28;20214;-76
2022/08/10 08:48:09;;;;;;;3.58;1.92;;;29.10;60.10;;;;;;5041805;28;20199;-77
2022/08/10 08:50:52;;;;;;;6.68;1.52;;;29.20;59.40;;;;;;5034746;28;20195;-75
2022/08/10 08:53:45;;;;;;;4.10;1.80;;;29.30;59.60;;;;;;5046971;28;20191;-76
2022/08/10 08:56:40;;;;;;;4.43;1.85;;;29.30;59.60;;;;;;5038824;28;20199;-76
2022/08/10 08:59:21;;;;;;;6.47;2.15;;;29.40;59.40;;;;;;5041512;28;20207;-76
2022/08/10 09:01:58;;;;;;;5.95;2.05;;;29.50;59.40;;;;;;5048692;28;20198;-76
2022/08/10 09:04:41;;;;;;;3.58;1.80;;;29.50;59.30;;;;;;5040192;28;20217;-75
2022/08/10 09:07:35;;;;;;;3.85;1.80;;;29.60;59.20;;;;;;5040987;28;20191;-76
2022/08/10 09:10:35;;;;;;;5.82;1.70;;;29.70;58.80;;;;;;5038385;28;20225;-76
2022/08/10 09:13:11;;;;;;;4.95;2.00;;;29.70;58.80;;;;;;5037425;28;20222;-75
2022/08/10 09:15:46;;;;;;;4.90;2.17;;;29.70;58.60;;;;;;5041815;28;20526;-76
2022/08/10 09:18:21;;;;;;;3.88;2.28;;;29.70;58.70;;;;;;5047104;28;20563;-77
2022/08/10 09:20:55;;;;;;;3.92;2.38;;;29.80;58.60;;;;;;5040886;28;20262;-76
2022/08/10 09:23:34;;;;;;;3.00;1.80;;;29.80;58.60;;;;;;5045024;28;20187;-76
2022/08/10 09:26:28;;;;;;;3.38;2.08;;;29.80;58.40;;;;;;5040235;28;20227;-76
2022/08/10 09:29:19;;;;;;;2.78;1.95;;;29.70;58.10;;;;;;5035904;28;20211;-77
2022/08/10 09:31:54;;;;;;;3.33;1.80;;;29.80;57.90;;;;;;5041468;28;20583;-76
2022/08/10 09:34:52;;;;;;;2.45;1.75;;;29.80;58.00;;;;;;5041908;28;20879;-78
2022/08/10 09:37:47;;;;;;;4.15;1.88;;;29.70;57.90;;;;;;5045247;28;20199;-76
2022/08/10 09:40:41;;;;;;;3.90;1.83;;;29.80;58.10;;;;;;5043278;28;20587;-76
2022/08/10 09:43:39;;;;;;;2.83;1.67;;;29.70;57.80;;;;;;5039909;28;20365;-75
2022/08/10 09:46:20;;;;;;;2.70;2.00;;;29.70;57.70;;;;;;5040989;28;20203;-75
2022/08/10 09:49:01;;;;;;;3.85;1.63;;;29.70;57.80;;;;;;5042613;28;20190;-76
2022/08/10 09:51:41;;;;;;;2.90;1.90;;;29.70;57.60;;;;;;5042519;28;20274;-76
2022/08/10 09:54:30;;;;;;;3.22;2.00;;;29.70;57.90;;;;;;5034639;28;20203;-75
2022/08/10 09:57:11;;;;;;;3.03;1.58;;;29.80;57.70;;;;;;5047556;28;20190;-76
2022/08/10 10:00:09;;;;;;;8.95;1.98;;;29.90;57.80;;;;;;5041493;28;20194;-75
2022/08/10 10:02:51;;;;;;;2.80;1.80;;;30.00;57.90;;;;;;5046911;28;20187;-74
2022/08/10 10:05:33;;;;;;;3.83;1.60;;;30.10;57.60;;;;;;5045445;28;20278;-76
2022/08/10 10:08:10;;;;;;;3.78;1.48;;;30.10;57.40;;;;;;5047775;28;20190;-75
2022/08/10 10:10:45;;;;;;;1.95;1.13;;;30.10;57.10;;;;;;5051356;28;20202;-75
2022/08/10 10:13:24;;;;;;;4.38;1.58;;;30.00;56.50;;;;;;5043997;28;20203;-75
2022/08/10 10:16:33;;;;;;;3.20;1.50;;;30.10;56.40;;;;;;5042905;28;20191;-75
2022/08/10 10:19:16;;;;;;;2.20;1.42;;;30.10;56.40;;;;;;5047315;28;20195;-75
2022/08/10 10:21:49;;;;;;;6.72;1.55;;;30.10;56.50;;;;;;5042524;28;20194;-76
2022/08/10 10:24:32;;;;;;;2.80;1.17;;;30.20;56.50;;;;;;5052251;28;20201;-76
2022/08/10 10:27:09;;;;;;;2.47;1.40;;;30.20;56.30;;;;;;5036105;28;20217;-75
2022/08/10 10:29:54;;;;;;;4.75;1.40;;;30.30;56.20;;;;;;5047243;28;20209;-76
2022/08/10 10:32:32;;;;;;;2.63;1.50;;;30.30;56.20;;;;;;5044431;28;20195;-76
2022/08/10 10:35:15;;;;;;;3.53;1.80;;;30.30;56.10;;;;;;5051769;28;20218;-77
2022/08/10 10:37:47;;;;;;;6.95;1.95;;;30.40;55.90;;;;;;5052350;28;20186;-75
2022/08/10 10:40:38;;;;;;;2.88;1.48;;;30.30;55.70;;;;;;5045452;28;20242;-75
2022/08/10 10:43:20;;;;;;;3.35;1.65;;;30.40;55.70;;;;;;5046804;28;20873;-75
2022/08/10 10:46:03;;;;;;;7.38;1.75;;;30.40;55.80;;;;;;5040034;28;20227;-76
2022/08/10 10:48:40;;;;;;;2.55;1.65;;;30.40;55.90;;;;;;5048780;28;20651;-75
2022/08/10 10:51:16;;;;;;;2.45;1.50;;;30.30;55.60;;;;;;5045795;28;20289;-76
2022/08/10 10:53:51;;;;;;;3.78;1.48;;;30.30;55.50;;;;;;5041706;28;20692;-76
2022/08/10 10:56:27;;;;;;;3.65;1.70;;;30.30;55.60;;;;;;5043314;28;20194;-76
2022/08/10 10:59:08;;;;;;;3.97;1.63;;;30.30;55.70;;;;;;5049087;28;20199;-76
2022/08/10 11:02:16;;;;;;;2.53;1.63;;;30.30;55.70;;;;;;5048659;28;20262;-76
2022/08/10 11:04:57;;;;;;;3.22;1.77;;;30.30;55.70;;;;;;5044570;28;20203;-76
2022/08/10 11:07:42;;;;;;;3.22;1.73;;;30.30;55.70;;;;;;5045194;28;20757;-76
2022/08/10 11:10:25;;;;;;;8.98;1.73;;;30.30;55.70;;;;;;5046490;28;20195;-76
2022/08/10 11:13:16;;;;;;;4.53;1.75;;;30.20;55.70;;;;;;5048742;28;20194;-77
2022/08/10 11:16:08;;;;;;;2.45;1.50;;;30.20;55.60;;;;;;5047301;28;20220;-76
2022/08/10 11:18:53;;;;;;;6.68;1.92;;;30.20;55.30;;;;;;5046658;28;20552;-78
2022/08/10 11:21:31;;;;;;;3.33;1.75;;;30.10;55.00;;;;;;5047051;28;20191;-75
2022/08/10 11:24:07;;;;;;;4.13;1.48;;;30.10;55.10;;;;;;5043472;28;20191;-76
2022/08/10 11:27:02;;;;;;;3.67;1.60;;;30.00;55.20;;;;;;5042871;28;20221;-76
2022/08/10 11:29:37;;;;;;;4.10;1.77;;;30.00;55.20;;;;;;5056332;28;20193;-76
2022/08/10 11:32:16;;;;;;;2.70;1.67;;;30.00;55.20;;;;;;5048214;28;20198;-76
2022/08/10 11:34:56;;;;;;;5.90;1.83;;;30.00;55.30;;;;;;5048337;28;20190;-75
2022/08/10 11:37:52;;;;;;;4.63;1.77;;;30.00;55.60;;;;;;5044489;28;20183;-76
2022/08/10 11:40:48;;;;;;;3.17;1.70;;;30.00;55.70;;;;;;5042256;28;20279;-76
2022/08/10 11:43:21;;;;;;;2.47;1.65;;;30.00;55.70;;;;;;5057882;28;20205;-76
2022/08/10 11:45:54;;;;;;;5.65;2.47;;;30.00;55.60;;;;;;5045290;28;20195;-76
2022/08/10 11:48:33;;;;;;;4.13;2.20;;;30.00;55.60;;;;;;5042258;28;20186;-76
2022/08/10 11:51:28;;;;;;;3.17;2.10;;;30.10;55.70;;;;;;5042586;28;20692;-76
2022/08/10 11:54:05;;;;;;;4.75;1.95;;;30.10;55.80;;;;;;5052070;28;20198;-77
2022/08/10 11:56:47;;;;;;;3.70;2.13;;;30.10;55.70;;;;;;5053707;28;20190;-76
2022/08/10 12:02:06;;;;;;;5.93;1.73;;;30.10;55.90;;;;;;5058676;28;20208;-76
2022/08/10 12:04:35;;;;;;;7.25;1.95;;;30.10;55.80;;;;;;5046468;28;20716;-77
2022/08/10 12:07:07;;;;;;;4.88;2.00;;;30.10;55.80;;;;;;5041209;28;20886;-76
2022/08/10 12:09:56;;;;;;;3.45;2.33;;;30.10;55.80;;;;;;5045254;28;20245;-77
2022/08/10 12:12:44;;;;;;;4.15;2.25;;;30.10;55.80;;;;;;5046701;28;20191;-76
2022/08/10 12:15:19;;;;;;;3.55;2.20;;;30.10;55.90;;;;;;5038669;28;20198;-76
2022/08/10 12:18:05;;;;;;;6.78;2.85;;;30.10;55.90;;;;;;5046444;28;20191;-76
2022/08/10 12:20:40;;;;;;;4.28;2.88;;;30.20;55.90;;;;;;5054511;28;20203;-77
2022/08/10 12:23:15;;;;;;;6.47;3.10;;;30.20;55.90;;;;;;5048990;28;20640;-76
2022/08/10 12:25:51;;;;;;;4.90;3.42;;;30.20;56.00;;;;;;5049613;28;20494;-77
2022/08/10 12:28:34;;;;;;;5.82;3.45;;;30.20;56.10;;;;;;5033671;28;20210;-76
2022/08/10 12:31:25;;;;;;;5.13;3.25;;;30.20;56.20;;;;;;5049798;28;20195;-76
2022/08/10 12:34:19;;;;;;;6.63;3.60;;;30.20;56.30;;;;;;5049667;28;20236;-77
2022/08/10 12:36:58;;;;;;;5.93;3.65;;;30.20;56.40;;;;;;5048480;28;20601;-76
2022/08/10 12:39:36;;;;;;;7.50;3.55;;;30.20;56.40;;;;;;5048624;28;20583;-76
2022/08/10 12:42:09;;;;;;;6.22;4.00;;;30.20;56.50;;;;;;5044253;28;20198;-76
2022/08/10 12:45:05;;;;;;;5.30;3.47;;;30.20;56.80;;;;;;5045606;28;20643;-77
2022/08/10 12:47:44;;;;;;;7.68;3.42;;;30.20;56.80;;;;;;5040806;28;20214;-78
2022/08/10 12:50:18;;;;;;;6.50;3.55;;;30.20;56.80;;;;;;5049425;28;20191;-76
2022/08/10 12:53:06;;;;;;;9.45;3.25;;;30.20;56.80;;;;;;5043503;28;20240;-76
2022/08/10 12:55:39;;;;;;;6.63;3.42;;;30.30;57.00;;;;;;5043508;28;20701;-75
2022/08/10 12:58:12;;;;;;;5.50;3.45;;;30.30;56.90;;;;;;5043655;28;20187;-76
2022/08/10 13:01:04;;;;;;;5.22;3.40;;;30.30;56.80;;;;;;5044373;28;20206;-76
2022/08/10 13:03:51;;;;;;;7.65;3.88;;;30.40;56.80;;;;;;5044630;28;20195;-76
2022/08/10 13:06:44;;;;;;;7.68;3.83;;;30.40;56.90;;;;;;5046935;28;20207;-76
2022/08/10 13:09:14;;;;;;;6.03;3.47;;;30.50;56.90;;;;;;5035078;28;20290;-78
2022/08/10 13:11:49;;;;;;;8.32;3.60;;;30.60;56.90;;;;;;5042728;28;20203;-77
2022/08/10 13:14:42;;;;;;;7.13;3.38;;;30.60;56.80;;;;;;5045346;28;20199;-76
2022/08/10 13:17:22;;;;;;;7.75;4.13;;;30.70;56.80;;;;;;5041863;28;20899;-77
2022/08/10 13:19:53;;;;;;;13.73;3.80;;;30.70;56.70;;;;;;5044679;28;20194;-76
2022/08/10 13:22:35;;;;;;;8.73;3.90;;;30.80;56.70;;;;;;5047001;28;20195;-76
2022/08/10 13:25:07;;;;;;;10.27;3.35;;;31.00;56.70;;;;;;5042589;28;20249;-77
2022/08/10 13:27:40;;;;;;;4.57;2.95;;;31.10;56.60;;;;;;5043739;28;20203;-77
2022/08/10 13:30:33;;;;;;;8.75;3.45;;;31.20;56.50;;;;;;5055105;28;20198;-77
2022/08/10 13:33:07;;;;;;;5.00;3.00;;;31.20;56.10;;;;;;5043659;28;20198;-76
2022/08/10 13:35:38;;;;;;;6.10;3.35;;;31.40;55.90;;;;;;5041917;28;20197;-76
2022/08/10 13:38:09;;;;;;;6.05;3.67;;;31.40;55.80;;;;;;5045715;28;20206;-77
2022/08/10 13:40:40;;;;;;;4.75;3.40;;;31.60;55.80;;;;;;5043159;28;20227;-76
2022/08/10 13:43:16;;;;;;;4.70;2.95;;;31.60;55.70;;;;;;5047156;28;20199;-75
2022/08/10 13:45:47;;;;;;;4.78;2.50;;;31.70;55.50;;;;;;5043047;28;20203;-75
2022/08/10 13:48:23;;;;;;;4.57;2.72;;;31.70;55.50;;;;;;5043465;28;20223;-74
2022/08/10 13:50:57;;;;;;;5.72;3.15;;;31.70;55.20;;;;;;5004291;28;20205;-76